createdAt,value
2018-02-07T00:01:36.758Z,94947
2018-02-07T00:04:11.910Z,94947
2018-02-07T00:06:48.850Z,94945
2018-02-07T00:09:24.134Z,94946
2018-02-07T00:11:59.869Z,94942
2018-02-07T00:14:34.906Z,94941
2018-02-07T00:17:09.960Z,94932
2018-02-07T00:19:44.977Z,94925
2018-02-07T00:22:20.066Z,94933
2018-02-07T00:24:54.936Z,94928
2018-02-07T00:27:29.968Z,94918
2018-02-07T00:30:08.526Z,94915
2018-02-07T00:32:43.564Z,94959
2018-02-07T00:35:18.451Z,94917
2018-02-07T00:37:53.334Z,94921
2018-02-07T00:40:28.334Z,94918
2018-02-07T00:43:03.280Z,94925
2018-02-07T00:45:38.144Z,94918
2018-02-07T00:48:13.181Z,94912
2018-02-07T00:50:48.180Z,94922
2018-02-07T00:53:34.248Z,94932
2018-02-07T00:56:09.198Z,94931
2018-02-07T00:58:44.185Z,94923
2018-02-07T01:01:19.167Z,94924
2018-02-07T01:03:54.105Z,94923
2018-02-07T01:06:29.084Z,94923
2018-02-07T01:09:04.132Z,94907
2018-02-07T01:11:39.740Z,95047
2018-02-07T01:14:14.836Z,94917
2018-02-07T01:16:49.726Z,94949
2018-02-07T01:19:25.483Z,94259
2018-02-07T01:22:00.459Z,94930
2018-02-07T01:24:35.376Z,94928
2018-02-07T01:27:10.219Z,94928
2018-02-07T01:29:45.325Z,94926
2018-02-07T01:32:20.172Z,94928
2018-02-07T01:34:55.210Z,94919
2018-02-07T01:37:30.209Z,94446
2018-02-07T01:40:05.269Z,94938
2018-02-07T01:42:40.256Z,94934
2018-02-07T01:45:15.299Z,94936
2018-02-07T01:47:50.339Z,94947
2018-02-07T01:50:25.470Z,94971
2018-02-07T01:53:00.485Z,94949
2018-02-07T01:55:36.184Z,94948
2018-02-07T01:58:12.024Z,94947
2018-02-07T02:00:47.759Z,94945
2018-02-07T02:03:22.757Z,94963
2018-02-07T02:05:57.777Z,94960
2018-02-07T02:08:32.653Z,94965
2018-02-07T02:11:01.764Z,94962
2018-02-07T02:13:30.852Z,94964
2018-02-07T02:15:59.985Z,94961
2018-02-07T02:18:29.040Z,94972
2018-02-07T02:20:58.153Z,94970
2018-02-07T02:23:27.249Z,94954
2018-02-07T02:25:56.352Z,94969
2018-02-07T02:28:25.401Z,94966
2018-02-07T02:30:55.232Z,94965
2018-02-07T02:33:24.302Z,94974
2018-02-07T02:36:11.774Z,94963
2018-02-07T02:38:42.717Z,94966
2018-02-07T02:41:12.793Z,94969
2018-02-07T02:43:41.940Z,94985
2018-02-07T02:46:11.081Z,94975
2018-02-07T02:48:40.231Z,94976
2018-02-07T02:51:09.404Z,94980
2018-02-07T02:53:55.478Z,94973
2018-02-07T02:56:25.165Z,94979
2018-02-07T02:58:54.304Z,94315
2018-02-07T03:01:26.431Z,94979
2018-02-07T03:03:55.552Z,95016
2018-02-07T03:06:24.650Z,94972
2018-02-07T03:09:13.556Z,95079
2018-02-07T03:11:54.009Z,94975
2018-02-07T07:37:49.326Z,95025
2018-02-07T07:40:18.365Z,95039
2018-02-07T07:42:47.576Z,95035
2018-02-07T07:45:17.387Z,95046
2018-02-07T07:47:47.239Z,95046
2018-02-07T07:50:16.290Z,95053
2018-02-07T07:52:46.080Z,95046
2018-02-07T07:55:15.158Z,95052
2018-02-07T07:57:44.228Z,95055
2018-02-07T08:00:13.254Z,95061
2018-02-07T08:02:42.306Z,95065
2018-02-07T08:05:11.317Z,95074
2018-02-07T08:07:40.361Z,95064
2018-02-07T08:10:10.151Z,95055
2018-02-07T08:12:39.207Z,95058
2018-02-07T08:15:08.272Z,95063
2018-02-07T08:17:38.065Z,95057
2018-02-07T08:20:07.114Z,95060
2018-02-07T08:22:36.142Z,95070
2018-02-07T08:25:05.191Z,95068
2018-02-07T08:27:34.230Z,95070
2018-02-07T08:30:03.283Z,95056
2018-02-07T08:32:32.307Z,95063
2018-02-07T08:35:01.374Z,95061
2018-02-07T08:37:30.398Z,95062
2018-02-07T08:39:59.451Z,95068
2018-02-07T08:42:28.479Z,95066
2018-02-07T08:44:57.566Z,95070
2018-02-07T08:47:26.595Z,95071
2018-02-07T08:49:55.615Z,95082
2018-02-07T08:52:24.680Z,95078
2018-02-07T08:54:53.733Z,95071
2018-02-07T08:57:22.766Z,95065
2018-02-07T08:59:51.809Z,95082
2018-02-07T09:02:25.481Z,95069
2018-02-07T09:04:54.576Z,95067
2018-02-07T09:07:24.367Z,95081
2018-02-07T09:09:53.540Z,95075
2018-02-07T09:12:22.611Z,95089
2018-02-07T09:14:51.644Z,95083
2018-02-07T09:17:20.739Z,95082
2018-02-07T09:19:49.767Z,95092
2018-02-07T09:22:19.552Z,95087
2018-02-07T09:24:48.612Z,95086
2018-02-07T09:27:18.583Z,95082
2018-02-07T09:29:48.437Z,95086
2018-02-07T09:32:17.462Z,95084
2018-02-07T09:34:46.523Z,95079
2018-02-07T09:37:15.542Z,95090
2018-02-07T09:39:44.593Z,95082
2018-02-07T09:42:13.614Z,95083
2018-02-07T09:44:43.656Z,95073
2018-02-07T09:47:12.753Z,95081
2018-02-07T09:49:41.782Z,95093
2018-02-07T09:52:10.880Z,95091
2018-02-07T09:54:39.927Z,95089
2018-02-07T09:57:08.947Z,95117
2018-02-07T09:59:38.761Z,95097
2018-02-07T10:02:08.541Z,95100
2018-02-07T10:04:37.630Z,95107
2018-02-07T10:07:07.615Z,95101
2018-02-07T10:09:36.651Z,95109
2018-02-07T10:12:05.710Z,95104
2018-02-07T10:14:34.727Z,95101
2018-02-07T10:17:03.814Z,95146
2018-02-07T10:19:32.864Z,95100
2018-02-07T10:22:01.926Z,95103
2018-02-07T10:24:30.939Z,95105
2018-02-07T10:27:00.754Z,95103
2018-02-07T10:29:30.541Z,95109
2018-02-07T10:31:59.586Z,95104
2018-02-07T10:34:28.607Z,95102
2018-02-07T10:36:57.667Z,95096
2018-02-07T10:39:26.703Z,95096
2018-02-07T10:41:55.789Z,95112
2018-02-07T10:44:24.818Z,95084
2018-02-07T10:46:54.610Z,95076
2018-02-07T10:49:23.702Z,95068
2018-02-07T10:51:52.739Z,94935
2018-02-07T10:54:21.770Z,95066
2018-02-07T10:56:50.826Z,95076
2018-02-07T10:59:19.890Z,95061
2018-02-07T11:01:49.690Z,95070
2018-02-07T11:04:18.754Z,95088
2018-02-07T11:06:47.782Z,95072
2018-02-07T11:09:16.924Z,95070
2018-02-07T11:11:45.966Z,95077
2018-02-07T11:14:15.002Z,95094
2018-02-07T11:16:44.181Z,95075
2018-02-07T11:19:13.980Z,95081
2018-02-07T11:21:43.016Z,95081
2018-02-07T11:24:12.100Z,95082
2018-02-07T11:26:41.132Z,95083
2018-02-07T11:29:10.166Z,95096
2018-02-07T11:31:39.995Z,95093
2018-02-07T11:34:09.819Z,95089
2018-02-07T11:36:38.842Z,95078
2018-02-07T11:39:07.905Z,95078
2018-02-07T11:41:36.926Z,95079
2018-02-07T11:44:05.997Z,95079
2018-02-07T11:46:35.044Z,95078
2018-02-07T11:49:04.084Z,95067
2018-02-07T11:51:33.160Z,95082
2018-02-07T11:54:02.988Z,95074
2018-02-07T11:56:32.023Z,95076
2018-02-07T11:59:01.100Z,95083
2018-02-07T12:01:30.140Z,95086
2018-02-07T12:03:59.203Z,95091
2018-02-07T12:06:28.223Z,95087
2018-02-07T12:08:58.135Z,95086
2018-02-07T12:11:27.199Z,95084
2018-02-07T12:13:56.231Z,95084
2018-02-07T12:16:25.290Z,95084
2018-02-07T12:18:54.326Z,95081
2018-02-07T12:21:24.155Z,95076
2018-02-07T12:23:53.191Z,95070
2018-02-07T12:26:22.254Z,95077
2018-02-07T12:28:51.302Z,95079
2018-02-07T12:31:20.362Z,95094
2018-02-07T12:33:53.641Z,95083
2018-02-07T12:36:22.698Z,95084
2018-02-07T12:38:52.798Z,95085
2018-02-07T12:41:28.670Z,95078
2018-02-07T12:44:03.489Z,95076
2018-02-07T12:46:38.532Z,95072
2018-02-07T12:49:13.502Z,95121
2018-02-07T12:51:48.459Z,95075
2018-02-07T12:54:23.476Z,95074
2018-02-07T12:56:58.687Z,95077
2018-02-07T12:59:33.914Z,95070
2018-02-07T13:02:09.016Z,95064
2018-02-07T13:04:44.195Z,95067
2018-02-07T13:07:19.534Z,95069
2018-02-07T13:09:55.368Z,95069
2018-02-07T13:12:31.186Z,95067
2018-02-07T13:15:07.810Z,95066
2018-02-07T13:17:42.851Z,95075
2018-02-07T13:20:18.215Z,95073
2018-02-07T13:22:53.248Z,95071
2018-02-07T13:25:28.131Z,95069
2018-02-07T13:28:03.014Z,95080
2018-02-07T13:30:38.676Z,95072
2018-02-07T13:33:13.697Z,95073
2018-02-07T13:35:48.575Z,95078
2018-02-07T13:38:23.878Z,95073
2018-02-07T13:40:59.982Z,95079
2018-02-07T13:43:35.122Z,95091
2018-02-07T13:46:10.547Z,95092
2018-02-07T13:48:45.678Z,95095
2018-02-07T13:51:21.177Z,95125
2018-02-07T13:53:56.630Z,95092
2018-02-07T13:56:31.793Z,95093
2018-02-07T13:59:07.147Z,95106
2018-02-07T14:01:42.303Z,95105
2018-02-07T14:04:17.651Z,95109
2018-02-07T14:06:52.660Z,95114
2018-02-07T14:09:28.173Z,95114
2018-02-07T14:12:03.278Z,95117
2018-02-07T14:14:39.416Z,95117
2018-02-07T14:17:16.461Z,95124
2018-02-07T14:19:51.448Z,95117
2018-02-07T14:22:26.812Z,95131
2018-02-07T14:25:02.876Z,95127
2018-02-07T14:27:37.907Z,95135
2018-02-07T14:30:13.213Z,95133
2018-02-07T14:32:49.347Z,95132
2018-02-07T14:35:24.382Z,95136
2018-02-07T14:37:59.869Z,95133
2018-02-07T14:40:35.497Z,95136
2018-02-07T14:43:11.766Z,95139
2018-02-07T14:45:46.708Z,95140
2018-02-07T14:48:22.672Z,95131
2018-02-07T14:50:57.640Z,95132
2018-02-07T14:53:32.519Z,95132
2018-02-07T14:56:08.135Z,95133
2018-02-07T14:58:44.086Z,95138
2018-02-07T15:01:18.919Z,95142
2018-02-07T15:03:53.955Z,95135
2018-02-07T15:06:29.529Z,95134
2018-02-07T15:09:04.843Z,95139
2018-02-07T15:11:40.527Z,95140
2018-02-07T15:14:16.172Z,95143
2018-02-07T15:16:53.647Z,95137
2018-02-07T15:19:29.508Z,95139
2018-02-07T15:22:04.754Z,95154
2018-02-07T15:24:41.004Z,95159
2018-02-07T15:27:17.094Z,95151
2018-02-07T15:29:53.295Z,95156
2018-02-07T15:32:28.491Z,95156
2018-02-07T15:35:03.847Z,95162
2018-02-07T15:37:39.465Z,95166
2018-02-07T15:40:14.880Z,95164
2018-02-07T15:42:50.028Z,95153
2018-02-07T15:45:25.091Z,95157
2018-02-07T15:48:01.339Z,95159
2018-02-07T15:50:36.312Z,95161
2018-02-07T15:53:11.655Z,95154
2018-02-07T15:55:47.709Z,95159
2018-02-07T15:58:23.551Z,95166
2018-02-07T16:00:58.675Z,95162
2018-02-07T16:03:34.070Z,95171
2018-02-07T16:06:08.970Z,95182
2018-02-07T16:08:44.123Z,95166
2018-02-07T16:11:19.789Z,95166
2018-02-07T16:13:55.209Z,95173
2018-02-07T16:16:30.645Z,95176
2018-02-07T16:19:05.532Z,95168
2018-02-07T16:21:40.945Z,95178
2018-02-07T16:24:15.963Z,95187
2018-02-07T16:26:51.289Z,95182
2018-02-07T16:29:26.450Z,95192
2018-02-07T16:32:01.919Z,95193
2018-02-07T16:34:38.010Z,95204
2018-02-07T16:37:13.187Z,95208
2018-02-07T16:39:48.514Z,95205
2018-02-07T16:42:23.514Z,95214
2018-02-07T16:45:00.311Z,95204
2018-02-07T16:47:35.713Z,95194
2018-02-07T16:50:11.018Z,95211
2018-02-07T16:52:46.395Z,95222
2018-02-07T16:55:21.926Z,95252
2018-02-07T16:57:57.198Z,95234
2018-02-07T17:00:33.247Z,95237
2018-02-07T17:03:08.700Z,95245
2018-02-07T17:05:44.067Z,95247
2018-02-07T17:08:19.765Z,95249
2018-02-07T17:10:54.773Z,95258
2018-02-07T17:13:30.664Z,95266
2018-02-07T17:16:05.839Z,95262
2018-02-07T17:18:41.225Z,95264
2018-02-07T17:21:16.649Z,95273
2018-02-07T17:23:52.946Z,95278
2018-02-07T17:26:28.600Z,95270
2018-02-07T17:29:03.594Z,95284
2018-02-07T17:31:38.910Z,95292
2018-02-07T17:34:15.184Z,95293
2018-02-07T17:36:51.226Z,95293
2018-02-07T17:39:26.652Z,95294
2018-02-07T17:42:02.026Z,95287
2018-02-07T17:44:37.472Z,95296
2018-02-07T17:47:13.687Z,95309
2018-02-07T17:49:48.766Z,95314
2018-02-07T17:52:24.262Z,95314
2018-02-07T17:54:59.292Z,95315
2018-02-07T17:57:34.333Z,95315
2018-02-07T18:00:11.729Z,95320
2018-02-07T18:02:46.743Z,95320
2018-02-07T18:05:22.162Z,95317
2018-02-07T18:07:57.889Z,95311
2018-02-07T18:10:34.298Z,95325
2018-02-07T18:13:09.508Z,95326
2018-02-07T18:15:44.971Z,95312
2018-02-07T18:18:21.671Z,95317
2018-02-07T18:20:57.357Z,95320
2018-02-07T18:23:32.504Z,95316
2018-02-07T18:26:07.794Z,95319
2018-02-07T18:28:42.837Z,95336
2018-02-07T18:31:18.607Z,95325
2018-02-07T18:33:53.966Z,95330
2018-02-07T18:36:30.365Z,95333
2018-02-07T18:39:06.320Z,95344
2018-02-07T18:41:41.322Z,95341
2018-02-07T18:44:16.134Z,95339
2018-02-07T18:46:52.139Z,95336
2018-02-07T18:49:26.978Z,95344
2018-02-07T18:52:01.991Z,95345
2018-02-07T18:54:36.976Z,95344
2018-02-07T18:57:12.936Z,95353
2018-02-07T18:59:47.904Z,95343
2018-02-07T19:02:22.885Z,95351
2018-02-07T19:04:58.515Z,95350
2018-02-07T19:07:33.594Z,95349
2018-02-07T19:10:08.451Z,95354
2018-02-07T19:12:43.602Z,95361
2018-02-07T19:15:18.840Z,95353
2018-02-07T19:17:55.090Z,95355
2018-02-07T19:20:30.048Z,95349
2018-02-07T19:23:04.924Z,95353
2018-02-07T19:25:39.746Z,95351
2018-02-07T19:28:14.606Z,95356
2018-02-07T19:30:49.435Z,95361
2018-02-07T19:33:24.415Z,95368
2018-02-07T19:36:00.038Z,95369
2018-02-07T19:38:35.788Z,95364
2018-02-07T19:41:10.607Z,95365
2018-02-07T19:43:45.728Z,95378
2018-02-07T19:46:20.682Z,95375
2018-02-07T19:48:55.699Z,95379
2018-02-07T19:51:30.554Z,95384
2018-02-07T19:54:05.531Z,95386
2018-02-07T19:56:40.410Z,95422
2018-02-07T19:59:15.258Z,95392
2018-02-07T20:01:50.877Z,95406
2018-02-07T20:04:25.885Z,95401
2018-02-07T20:07:01.712Z,95409
2018-02-07T20:09:36.596Z,95400
2018-02-07T20:12:12.335Z,95413
2018-02-07T20:14:47.318Z,95415
2018-02-07T20:17:24.282Z,95406
2018-02-07T20:19:59.201Z,95413
2018-02-07T20:22:34.198Z,95412
2018-02-07T20:25:09.180Z,95417
2018-02-07T20:27:44.067Z,95413
2018-02-07T20:30:19.512Z,95418
2018-02-07T20:32:54.420Z,95417
2018-02-07T20:35:29.442Z,95425
2018-02-07T20:38:04.271Z,95451
2018-02-07T20:40:39.632Z,95425
2018-02-07T20:43:14.627Z,95426
2018-02-07T20:45:49.513Z,95422
2018-02-07T20:48:24.477Z,95430
2018-02-07T20:50:59.372Z,95425
2018-02-07T20:53:34.351Z,95420
2018-02-07T20:56:09.215Z,95422
2018-02-07T20:58:44.072Z,95424
2018-02-07T21:01:19.138Z,95425
2018-02-07T21:03:54.415Z,95420
2018-02-07T21:06:29.331Z,95424
2018-02-07T21:09:04.279Z,95420
2018-02-07T21:11:39.126Z,95419
2018-02-07T21:14:14.221Z,95425
2018-02-07T21:16:49.126Z,95421
2018-02-07T21:19:23.988Z,95415
2018-02-07T21:22:00.131Z,95420
2018-02-07T21:24:35.931Z,95433
2018-02-07T21:27:11.948Z,95423
2018-02-07T21:29:46.925Z,95424
2018-02-07T21:32:24.580Z,95414
2018-02-07T21:34:59.453Z,95426
2018-02-07T21:37:34.518Z,95426
2018-02-07T21:40:09.595Z,95428
2018-02-07T21:42:44.803Z,95433
2018-02-07T21:45:19.968Z,95429
2018-02-07T21:47:56.243Z,95440
2018-02-07T21:50:32.001Z,95431
2018-02-07T21:53:08.008Z,95431
2018-02-07T21:55:43.304Z,95439
2018-02-07T21:58:18.599Z,95438
2018-02-07T22:00:53.442Z,95447
2018-02-07T22:03:28.487Z,95450
2018-02-07T22:06:03.456Z,95452
2018-02-07T22:08:38.545Z,95451
2018-02-07T22:11:13.672Z,95458
2018-02-07T22:13:48.880Z,95451
2018-02-07T22:16:28.850Z,95460
2018-02-07T22:19:03.888Z,95454
2018-02-07T22:21:38.860Z,95469
2018-02-07T22:24:13.823Z,95461
2018-02-07T22:26:49.566Z,95467
2018-02-07T22:29:24.546Z,95464
2018-02-07T22:31:59.375Z,95472
2018-02-07T22:34:34.414Z,95495
2018-02-07T22:37:09.443Z,95465
2018-02-07T22:39:44.486Z,95472
2018-02-07T22:42:19.321Z,95476
2018-02-07T22:44:54.315Z,95496
2018-02-07T22:47:29.186Z,95487
2018-02-07T22:50:04.135Z,95488
2018-02-07T22:52:38.959Z,95491
2018-02-07T22:55:13.977Z,95484
2018-02-07T22:57:48.932Z,95489
2018-02-07T23:00:24.313Z,95495
2018-02-07T23:02:59.368Z,95505
2018-02-07T23:05:34.282Z,95495
2018-02-07T23:08:09.206Z,95495
2018-02-07T23:10:44.137Z,95499
2018-02-07T23:13:19.912Z,95501
2018-02-07T23:15:54.783Z,95515
2018-02-07T23:18:29.644Z,95498
2018-02-07T23:21:05.172Z,95500
2018-02-07T23:23:40.304Z,95492
2018-02-07T23:26:15.267Z,95493
2018-02-07T23:28:50.163Z,95493
2018-02-07T23:31:25.087Z,95487
2018-02-07T23:33:59.918Z,94602
2018-02-07T23:36:34.892Z,95480
2018-02-07T23:39:09.935Z,95476
2018-02-07T23:41:44.830Z,95477
2018-02-07T23:44:20.450Z,95482
2018-02-07T23:46:55.404Z,95490
2018-02-07T23:49:30.239Z,95489
2018-02-07T23:52:05.217Z,95489
2018-02-07T23:54:41.770Z,95487
2018-02-07T23:57:17.420Z,95487
2018-02-07T23:59:52.262Z,95498
